Time;durP1;ratioP1;P1;durP2;ratioP2;P2;SDS_P1;SDS_P2;PMS_P1;PMS_P2;Temp;Humidity;BMP_temperature;BMP_pressure;BME280_temperature;BME280_humidity;BME280_pressure;Samples;Min_cycle;Max_cycle;Signal;HPM_P1;HPM_P2
2021/07/14 00:01:43;;;;;;;22.80;12.87;;;;;;;23.31;66.35;100509.58;126305;1099;104169;-78
2021/07/14 00:04:14;;;;;;;23.83;12.30;;;;;;;23.32;66.22;100506.00;126331;1099;104303;-78
2021/07/14 00:06:46;;;;;;;20.85;12.00;;;;;;;23.29;66.56;100512.28;126326;1099;104248;-78
2021/07/14 00:09:16;;;;;;;23.03;12.80;;;;;;;23.26;66.58;100511.45;126336;1099;104197;-78
2021/07/14 00:11:53;;;;;;;24.17;13.03;;;;;;;23.24;66.47;100513.28;126198;1099;104261;-77
2021/07/14 00:14:35;;;;;;;20.60;12.40;;;;;;;23.23;66.60;100515.05;126375;1099;104245;-77
2021/07/14 00:22:38;;;;;;;20.97;12.33;;;;;;;23.18;66.82;100524.96;126299;1098;104249;-78
2021/07/14 00:25:12;;;;;;;22.50;12.63;;;;;;;23.20;67.09;100523.13;126328;1099;104220;-77
2021/07/14 00:27:49;;;;;;;22.90;12.90;;;;;;;23.18;66.91;100521.41;126330;1099;104258;-77
2021/07/14 00:30:26;;;;;;;23.90;14.00;;;;;;;23.16;67.30;100521.44;126292;1099;104985;-78
2021/07/14 00:32:57;;;;;;;24.77;14.30;;;;;;;23.19;67.28;100525.83;126197;1099;104309;-79
2021/07/14 00:35:27;;;;;;;22.17;13.13;;;;;;;23.14;67.38;100525.94;126341;1099;104255;-78
2021/07/14 00:37:59;;;;;;;23.50;12.67;;;;;;;23.05;67.33;100534.08;126295;1098;104248;-78
2021/07/14 00:40:30;;;;;;;22.10;12.30;;;;;;;22.94;67.69;100529.76;126342;1099;104139;-78
2021/07/14 00:43:01;;;;;;;24.80;12.80;;;;;;;22.88;67.90;100532.52;126288;1099;104171;-78
2021/07/14 00:45:33;;;;;;;22.93;12.97;;;;;;;22.85;67.75;100534.37;126322;1097;104294;-78
2021/07/14 00:48:05;;;;;;;21.70;12.80;;;;;;;22.78;67.87;100537.12;126343;1099;104264;-78
2021/07/14 00:50:38;;;;;;;21.90;12.67;;;;;;;22.67;67.77;100527.47;126332;1099;104159;-80
2021/07/14 00:53:09;;;;;;;23.98;13.20;;;;;;;22.57;68.42;100524.05;126286;1099;104271;-78
2021/07/14 00:55:40;;;;;;;24.03;12.93;;;;;;;22.49;68.39;100529.50;126307;1099;104358;-78
2021/07/14 00:58:13;;;;;;;22.77;12.70;;;;;;;22.40;69.28;100518.92;126305;1099;104140;-79
2021/07/14 01:00:44;;;;;;;23.67;13.47;;;;;;;22.32;69.27;100523.48;126384;1099;104217;-79
2021/07/14 01:03:21;;;;;;;21.33;13.47;;;;;;;22.22;68.74;100523.56;126206;1096;104168;-78
2021/07/14 01:05:59;;;;;;;23.73;12.87;;;;;;;22.14;69.58;100525.41;126362;1099;104141;-78
2021/07/14 01:08:40;;;;;;;24.70;13.83;;;;;;;22.06;69.68;100525.53;126337;1099;104153;-78
2021/07/14 01:11:15;;;;;;;22.93;13.73;;;;;;;22.00;69.90;100524.70;126303;1099;104243;-78
2021/07/14 01:13:53;;;;;;;23.97;12.93;;;;;;;21.96;70.16;100525.66;126285;1099;104172;-77
2021/07/14 01:16:28;;;;;;;21.53;12.77;;;;;;;21.92;69.98;100524.78;126336;1099;104141;-79
2021/07/14 01:19:08;;;;;;;22.27;13.83;;;;;;;21.89;69.82;100524.81;126362;1099;104148;-78
2021/07/14 01:21:44;;;;;;;24.97;13.63;;;;;;;21.86;70.35;100525.75;126336;1099;104188;-78
2021/07/14 01:24:22;;;;;;;25.17;13.83;;;;;;;21.86;70.76;100527.52;126172;1099;104302;-78
2021/07/14 01:27:07;;;;;;;22.13;13.97;;;;;;;21.83;71.08;100533.80;126369;1099;104226;-78
2021/07/14 01:29:45;;;;;;;23.00;14.50;;;;;;;21.82;70.76;100529.34;126328;1098;104252;-78
2021/07/14 01:32:18;;;;;;;22.87;13.40;;;;;;;21.79;70.81;100525.83;126311;1099;104146;-79
2021/07/14 01:34:53;;;;;;;22.53;13.17;;;;;;;21.77;70.41;100525.84;126302;1099;118945;-78
2021/07/14 01:37:27;;;;;;;21.30;13.50;;;;;;;21.78;70.95;100519.58;126321;1099;104136;-77
2021/07/14 01:40:00;;;;;;;23.95;14.83;;;;;;;21.79;70.95;100517.81;126357;1099;104194;-78
2021/07/14 01:42:34;;;;;;;22.87;13.80;;;;;;;21.79;71.07;100524.03;126289;1099;104275;-78
2021/07/14 01:45:06;;;;;;;22.80;13.77;;;;;;;21.79;70.72;100520.48;126320;1099;104149;-79
2021/07/14 01:47:40;;;;;;;23.87;13.80;;;;;;;21.79;70.83;100526.70;126365;1099;104239;-78
2021/07/14 01:50:13;;;;;;;21.97;13.60;;;;;;;21.76;71.36;100531.20;126294;1099;104179;-78
2021/07/14 01:52:44;;;;;;;23.87;13.50;;;;;;;21.74;71.09;100533.88;126303;1099;104253;-78
2021/07/14 01:55:17;;;;;;;21.93;14.70;;;;;;;21.73;70.85;100532.09;126353;1098;104188;-78
2021/07/14 01:57:48;;;;;;;21.13;13.93;;;;;;;21.72;71.18;100532.98;126349;1099;104176;-79
2021/07/14 02:00:23;;;;;;;24.43;14.00;;;;;;;21.71;71.09;100533.91;126359;1099;104245;-78
2021/07/14 02:03:04;;;;;;;25.17;14.03;;;;;;;21.72;71.68;100536.56;126307;1099;104140;-78
2021/07/14 02:05:41;;;;;;;23.50;14.17;;;;;;;21.71;71.86;100534.78;126335;1099;104165;-78
2021/07/14 02:08:13;;;;;;;23.90;14.33;;;;;;;21.72;71.77;100527.65;126382;1099;104181;-77
2021/07/14 02:10:46;;;;;;;25.57;15.03;;;;;;;21.73;71.74;100540.11;126346;1099;104181;-79
2021/07/14 02:13:17;;;;;;;;;;;;;;;21.68;71.20;100534.81;126301;1099;104178;-78
2021/07/14 02:15:53;;;;;;;24.70;14.07;;;;;;;21.65;71.18;100536.64;126296;1099;104211;-79
2021/07/14 02:18:30;;;;;;;24.93;14.67;;;;;;;21.62;72.04;100544.67;126363;1099;104144;-77
2021/07/14 02:21:03;;;;;;;23.87;14.53;;;;;;;21.59;71.57;100545.58;126272;1099;104194;-78
2021/07/14 02:23:37;;;;;;;22.53;14.03;;;;;;;21.52;72.31;100536.75;126216;1099;104172;-76
2021/07/14 02:26:08;;;;;;;24.37;13.93;;;;;;;21.51;72.17;100542.10;126312;1099;117889;-78
2021/07/14 02:28:42;;;;;;;22.23;14.30;;;;;;;21.48;71.84;100540.30;126281;1099;104159;-78
2021/07/14 02:31:16;;;;;;;23.93;15.03;;;;;;;21.48;71.84;100542.97;126348;1099;104169;-78
2021/07/14 02:33:48;;;;;;;23.77;14.67;;;;;;;21.47;71.63;100543.89;126341;1099;104166;-79
2021/07/14 02:36:21;;;;;;;23.40;14.30;;;;;;;21.48;72.56;100548.30;126335;1099;104223;-77
2021/07/14 02:39:01;;;;;;;21.60;14.27;;;;;;;21.48;72.14;100545.64;126286;1099;104281;-77
2021/07/14 02:41:41;;;;;;;23.27;14.37;;;;;;;21.47;72.73;100546.55;126302;1099;104369;-77
2021/07/14 02:44:15;;;;;;;22.87;13.90;;;;;;;21.49;72.18;100554.59;126238;1099;104136;-77
2021/07/14 02:46:49;;;;;;;23.23;14.73;;;;;;;21.49;72.37;100558.13;126336;1099;104216;-78
2021/07/14 02:49:24;;;;;;;24.27;14.50;;;;;;;21.49;72.01;100552.80;126353;1099;104136;-78
2021/07/14 02:51:57;;;;;;;27.47;15.47;;;;;;;21.49;72.95;100558.13;126351;1097;104242;-79
2021/07/14 02:54:29;;;;;;;23.07;14.70;;;;;;;21.50;72.30;100561.67;126291;1099;104335;-78
2021/07/14 02:57:03;;;;;;;24.00;14.53;;;;;;;21.49;72.79;100565.27;126375;1099;104149;-78
2021/07/14 02:59:33;;;;;;;;;;;;;;;21.44;72.92;100567.03;126359;1099;104271;-78
2021/07/14 03:02:06;;;;;;;22.33;15.10;;;;;;;21.39;72.30;100561.73;126391;1099;104245;-78
2021/07/14 03:04:39;;;;;;;25.27;15.80;;;;;;;21.35;72.71;100562.67;126326;1098;104169;-78
2021/07/14 03:07:10;;;;;;;24.73;15.03;;;;;;;21.33;73.18;100561.77;126310;1099;104245;-78
2021/07/14 03:09:43;;;;;;;25.27;14.57;;;;;;;21.32;73.42;100555.56;126383;1099;104194;-78
2021/07/14 03:12:16;;;;;;;23.03;15.07;;;;;;;21.33;72.72;100559.10;126336;1099;104159;-78
2021/07/14 03:14:50;;;;;;;24.98;14.90;;;;;;;21.32;73.68;100560.02;126311;1099;104235;-79
2021/07/14 03:17:20;;;;;;;;;;;;;;;21.30;73.52;100567.13;126383;1099;104233;-79
2021/07/14 03:19:52;;;;;;;23.63;14.73;;;;;;;21.29;73.89;100566.26;126230;1099;104085;-76
2021/07/14 03:22:24;;;;;;;23.93;14.80;;;;;;;21.30;73.81;100568.04;126274;1099;104181;-78
2021/07/14 03:24:57;;;;;;;26.73;14.90;;;;;;;21.30;74.02;100572.47;126238;1099;104181;-79
2021/07/14 03:27:28;;;;;;;24.30;14.70;;;;;;;21.31;73.78;100566.25;126375;1099;104252;-78
2021/07/14 03:30:00;;;;;;;23.07;14.80;;;;;;;21.30;73.42;100575.14;126330;1099;104255;-78
2021/07/14 03:33:03;;;;;;;26.83;14.87;;;;;;;21.31;73.76;100566.25;126313;1099;104573;-77
2021/07/14 03:35:59;;;;;;;30.63;14.83;;;;;;;21.35;73.95;100568.01;125222;1099;104172;-78
2021/07/14 03:38:31;;;;;;;28.80;15.60;;;;;;;21.43;73.80;100571.49;125199;1099;104332;-78
2021/07/14 03:41:03;;;;;;;28.40;15.30;;;;;;;21.49;74.08;100576.81;125171;1100;104185;-78
2021/07/14 03:43:36;;;;;;;30.00;15.53;;;;;;;21.53;73.71;100573.23;125210;1100;104239;-77
2021/07/14 03:46:09;;;;;;;23.67;15.40;;;;;;;21.60;73.80;100578.49;125166;1100;104345;-77
2021/07/14 03:48:41;;;;;;;24.95;14.98;;;;;;;21.63;74.24;100578.47;125206;1099;104271;-77
2021/07/14 03:51:13;;;;;;;22.23;14.33;;;;;;;21.67;73.70;100580.22;125201;1100;104252;-77
2021/07/14 03:53:44;;;;;;;28.63;14.40;;;;;;;21.69;73.92;100579.32;125251;1099;104168;-77
2021/07/14 03:56:15;;;;;;;24.20;14.10;;;;;;;21.71;74.58;100576.64;125175;1099;104284;-78
2021/07/14 03:58:47;;;;;;;23.27;14.13;;;;;;;21.73;73.76;100573.03;125188;1102;104354;-77
2021/07/14 04:01:19;;;;;;;22.73;14.17;;;;;;;21.78;74.15;100578.33;125237;1099;104227;-77
2021/07/14 04:03:50;;;;;;;22.60;13.67;;;;;;;21.84;73.95;100578.28;125233;1099;104188;-78
2021/07/14 04:06:23;;;;;;;25.50;14.57;;;;;;;21.89;74.52;100575.56;125258;1102;104441;-78
2021/07/14 04:09:21;;;;;;;26.43;14.90;;;;;;;21.94;74.16;100570.17;125215;1100;104226;-78
2021/07/14 04:11:55;;;;;;;23.50;14.00;;;;;;;22.00;74.07;100576.36;125270;1102;104146;-77
2021/07/14 04:14:27;;;;;;;25.87;14.83;;;;;;;22.05;74.08;100578.98;125307;1100;104149;-76
2021/07/14 04:17:00;;;;;;;26.15;14.05;;;;;;;22.08;74.40;100570.94;125201;1100;104229;-77
2021/07/14 04:19:31;;;;;;;26.27;14.67;;;;;;;22.14;73.92;100573.52;125313;1099;104142;-77
2021/07/14 04:22:03;;;;;;;23.87;13.60;;;;;;;22.22;74.45;100574.34;125298;1100;104323;-76
2021/07/14 04:24:34;;;;;;;27.37;15.10;;;;;;;22.28;74.52;100573.37;125266;1099;104768;-76
2021/07/14 04:27:05;;;;;;;25.73;14.47;;;;;;;22.37;74.01;100572.42;125268;1099;104736;-78
2021/07/14 04:29:35;;;;;;;25.70;14.07;;;;;;;22.42;73.96;100571.47;125300;1102;104205;-77
2021/07/14 04:32:07;;;;;;;21.70;13.70;;;;;;;22.47;73.48;100576.77;125177;1102;104185;-76
2021/07/14 04:34:38;;;;;;;24.10;14.77;;;;;;;22.51;73.39;100574.93;125126;1100;104201;-76
2021/07/14 04:37:09;;;;;;;25.80;13.83;;;;;;;22.57;73.56;100573.05;125061;1100;104680;-76
2021/07/14 04:39:39;;;;;;;25.27;14.70;;;;;;;22.60;73.60;100575.69;125240;1101;104348;-76
2021/07/14 04:42:13;;;;;;;24.92;14.75;;;;;;;22.65;73.69;100572.95;125159;1102;104153;-76
2021/07/14 04:44:50;;;;;;;32.00;14.67;;;;;;;22.71;73.78;100577.35;125280;1100;104304;-76
2021/07/14 04:47:22;;;;;;;23.13;14.87;;;;;;;22.77;73.52;100572.80;125181;1102;104197;-76
2021/07/14 04:49:52;;;;;;;26.90;14.77;;;;;;;22.84;73.72;100578.94;125186;1101;104326;-76
2021/07/14 04:52:23;;;;;;;25.70;13.63;;;;;;;22.92;73.27;100582.42;125264;1102;104140;-77
2021/07/14 04:54:54;;;;;;;27.17;14.77;;;;;;;22.98;73.45;100574.30;125260;1100;104373;-77
2021/07/14 04:57:25;;;;;;;24.57;14.47;;;;;;;23.04;73.30;100581.34;125203;1103;104141;-77
2021/07/14 04:59:56;;;;;;;27.47;15.10;;;;;;;23.11;73.06;100574.16;125214;1102;102282;-76
2021/07/14 05:02:26;;;;;;;28.17;15.33;;;;;;;23.14;72.94;100582.14;125243;1100;104233;-76
2021/07/14 05:04:59;;;;;;;25.47;14.63;;;;;;;23.18;73.28;100582.97;125309;1102;104173;-77
2021/07/14 05:07:32;;;;;;;25.00;15.03;;;;;;;23.21;72.73;100575.77;125192;1100;104423;-77
2021/07/14 05:10:06;;;;;;;24.40;14.47;;;;;;;23.27;72.72;100578.36;125311;1102;104296;-77
2021/07/14 05:12:41;;;;;;;30.60;15.33;;;;;;;23.33;72.79;100583.61;125259;1102;104281;-77
2021/07/14 05:15:16;;;;;;;24.40;13.83;;;;;;;23.39;72.52;100581.73;125250;1102;104310;-78
2021/07/14 05:17:48;;;;;;;29.90;15.57;;;;;;;23.43;72.78;100588.83;125223;1102;104287;-77
2021/07/14 05:20:21;;;;;;;24.73;14.60;;;;;;;23.48;72.54;100581.59;125220;1102;104169;-77
2021/07/14 05:22:54;;;;;;;23.63;14.57;;;;;;;23.54;72.59;100585.98;125220;1100;104176;-78
2021/07/14 05:25:28;;;;;;;27.25;15.40;;;;;;;23.60;72.31;100585.87;125288;1102;104223;-77
2021/07/14 05:28:01;;;;;;;26.90;14.73;;;;;;;23.67;72.59;100577.71;125175;1102;104322;-76
2021/07/14 05:30:37;;;;;;;23.70;14.70;;;;;;;23.75;72.41;100584.71;125190;1102;104256;-78
2021/07/14 05:33:15;;;;;;;25.33;14.07;;;;;;;23.84;72.32;100580.13;125260;1099;104222;-78
2021/07/14 05:35:46;;;;;;;22.40;13.93;;;;;;;23.94;72.27;100582.64;125190;1099;104367;-76
2021/07/14 05:38:22;;;;;;;29.50;15.63;;;;;;;24.01;72.06;100587.87;125184;1099;104294;-77
2021/07/14 05:40:56;;;;;;;29.33;15.43;;;;;;;24.09;71.70;100585.05;125222;1099;104312;-78
2021/07/14 05:43:32;;;;;;;31.63;15.00;;;;;;;24.18;71.63;100583.97;125284;1099;104194;-77
2021/07/14 05:46:08;;;;;;;27.30;14.83;;;;;;;24.29;71.92;100587.31;125193;1102;104166;-79
2021/07/14 05:48:44;;;;;;;26.75;15.20;;;;;;;24.36;71.66;100575.56;125091;1099;104281;-79
2021/07/14 05:51:20;;;;;;;23.83;13.60;;;;;;;24.46;71.64;100573.56;125258;1102;104342;-78
2021/07/14 05:53:58;;;;;;;25.33;14.20;;;;;;;24.54;71.31;100576.09;125107;1099;104320;-79
2021/07/14 05:56:33;;;;;;;25.20;14.90;;;;;;;24.61;71.02;100577.78;125248;1102;104204;-78
2021/07/14 05:59:07;;;;;;;27.13;15.03;;;;;;;24.68;71.29;100579.42;125197;1103;104339;-78
2021/07/14 06:01:40;;;;;;;21.50;13.60;;;;;;;24.76;71.23;100581.91;125231;1099;104310;-79
2021/07/14 06:04:14;;;;;;;25.27;13.73;;;;;;;24.84;71.21;100581.75;125176;1102;104213;-78
2021/07/14 06:06:49;;;;;;;25.87;13.97;;;;;;;24.90;70.67;100581.61;125141;1099;104380;-79
2021/07/14 06:09:26;;;;;;;25.80;14.03;;;;;;;24.98;70.56;100581.44;125145;1099;104333;-80
2021/07/14 06:12:01;;;;;;;24.00;13.33;;;;;;;25.06;70.36;100585.73;125186;1102;104351;-80
2021/07/14 06:14:37;;;;;;;27.23;13.93;;;;;;;25.14;69.87;100576.63;125305;1099;104181;-79
2021/07/14 06:17:10;;;;;;;25.67;14.20;;;;;;;25.22;70.05;100580.00;125236;1099;104303;-80
2021/07/14 06:19:46;;;;;;;26.30;14.50;;;;;;;25.29;69.99;100576.27;125226;1100;104964;-77
2021/07/14 06:22:53;;;;;;;27.47;14.47;;;;;;;25.39;70.02;100574.27;125125;1099;104142;-76
2021/07/14 06:25:47;;;;;;;31.93;14.27;;;;;;;25.52;69.46;100580.20;125097;1102;104217;-79
2021/07/14 06:28:20;;;;;;;25.70;13.77;;;;;;;25.63;69.02;100586.19;125239;1099;104258;-77
2021/07/14 06:30:55;;;;;;;25.87;14.03;;;;;;;25.73;68.83;100586.86;125269;1099;104296;-78
2021/07/14 06:33:31;;;;;;;24.17;14.10;;;;;;;25.83;68.52;100588.36;125130;1099;104542;-76
2021/07/14 06:36:04;;;;;;;28.87;14.10;;;;;;;25.94;68.33;100586.27;125181;1102;104371;-74
2021/07/14 06:38:36;;;;;;;26.20;12.53;;;;;;;26.04;68.19;100586.95;125103;1099;104636;-77
2021/07/14 06:41:08;;;;;;;24.10;12.27;;;;;;;26.15;67.74;100589.36;125982;1099;104272;-75
2021/07/14 06:43:45;;;;;;;23.57;13.03;;;;;;;26.25;67.51;100592.66;126085;1099;104271;-75
2021/07/14 06:46:20;;;;;;;30.83;13.80;;;;;;;26.33;67.31;100582.56;126107;1099;104216;-76
2021/07/14 06:48:52;;;;;;;23.70;11.75;;;;;;;26.43;66.98;100581.39;126204;1099;104156;-75
2021/07/14 06:51:28;;;;;;;23.03;12.33;;;;;;;26.51;66.22;100587.42;126087;1099;111949;-79
2021/07/14 06:54:03;;;;;;;29.90;13.30;;;;;;;26.63;66.28;100586.19;126235;1099;104230;-77
2021/07/14 06:56:36;;;;;;;27.70;13.67;;;;;;;26.72;66.50;100585.05;126069;1099;104691;-78
2021/07/14 06:59:13;;;;;;;24.90;13.27;;;;;;;26.83;66.03;100582.03;126182;1098;104184;-82
2021/07/14 07:01:46;;;;;;;21.83;11.33;;;;;;;26.93;65.80;100586.22;126223;1099;104179;-78
2021/07/14 07:04:18;;;;;;;23.97;11.93;;;;;;;27.03;65.94;100579.59;126221;1098;104152;-77
2021/07/14 07:06:49;;;;;;;24.00;13.35;;;;;;;27.20;65.24;100580.89;126142;1099;104149;-79
2021/07/14 07:09:31;;;;;;;26.50;13.10;;;;;;;27.35;64.67;100582.25;125878;1099;104160;-78
2021/07/14 07:12:05;;;;;;;23.10;12.40;;;;;;;27.45;64.49;100583.69;126080;1099;107287;-79
2021/07/14 07:14:40;;;;;;;25.90;12.87;;;;;;;27.54;64.44;100582.52;126181;1097;104201;-78
2021/07/14 07:17:12;;;;;;;21.10;11.10;;;;;;;27.69;63.07;100586.48;126077;1099;104504;-79
2021/07/14 07:19:45;;;;;;;24.13;10.83;;;;;;;27.83;63.24;100580.63;125997;1099;104139;-78
2021/07/14 07:22:23;;;;;;;23.27;10.70;;;;;;;27.93;62.80;100582.95;125852;1099;117870;-78
2021/07/14 07:24:59;;;;;;;17.33;9.57;;;;;;;28.01;62.49;100573.75;126191;1099;104133;-78
2021/07/14 07:27:35;;;;;;;15.23;8.47;;;;;;;28.21;61.09;100576.60;126154;1099;104162;-76
2021/07/14 07:30:09;;;;;;;16.40;8.40;;;;;;;28.39;59.97;100576.86;126071;1099;104198;-77
2021/07/14 07:32:41;;;;;;;17.17;8.80;;;;;;;28.47;59.11;100574.73;126172;1099;104217;-77
2021/07/14 07:35:14;;;;;;;15.70;8.57;;;;;;;28.57;58.09;100575.30;126073;1099;104172;-78
2021/07/14 07:37:51;;;;;;;14.20;8.38;;;;;;;28.67;58.71;100580.33;126057;1099;104217;-79
2021/07/14 07:40:23;;;;;;;16.63;9.17;;;;;;;28.84;58.22;100579.67;126070;1099;104294;-78
2021/07/14 07:42:57;;;;;;;17.97;8.90;;;;;;;28.99;57.81;100569.20;126191;1099;104609;-76
2021/07/14 07:45:32;;;;;;;16.07;9.53;;;;;;;29.22;56.94;100576.41;126089;1099;104172;-77
2021/07/14 07:48:12;;;;;;;17.07;9.13;;;;;;;29.38;55.83;100577.52;126141;1099;104236;-77
2021/07/14 07:50:45;;;;;;;21.93;10.20;;;;;;;29.48;55.80;100577.14;125963;1099;104223;-76
2021/07/14 07:53:20;;;;;;;18.77;10.05;;;;;;;29.60;55.56;100583.87;125904;1099;104258;-77
2021/07/14 07:55:55;;;;;;;19.87;10.70;;;;;;;29.64;54.19;100567.45;126001;1099;104197;-78
2021/07/14 07:58:29;;;;;;;17.33;10.00;;;;;;;29.73;54.58;100564.35;126079;1099;104182;-77
2021/07/14 08:01:03;;;;;;;19.30;9.97;;;;;;;29.89;54.94;100574.55;126100;1099;104274;-76
2021/07/14 08:03:40;;;;;;;20.53;10.37;;;;;;;30.05;53.32;100567.48;126104;1099;104188;-77
2021/07/14 08:06:13;;;;;;;21.65;10.15;;;;;;;30.22;54.05;100566.73;126101;1099;104303;-77
2021/07/14 08:08:47;;;;;;;22.00;9.75;;;;;;;30.34;53.56;100559.90;126048;1099;104139;-78
2021/07/14 08:11:19;;;;;;;19.67;10.00;;;;;;;30.45;53.86;100562.14;125474;1099;104165;-77
2021/07/14 08:13:56;;;;;;;23.73;10.27;;;;;;;30.56;53.28;100559.81;126121;1099;104384;-77
2021/07/14 08:16:29;;;;;;;20.73;10.50;;;;;;;30.68;53.18;100558.33;125369;1099;104402;-79
2021/07/14 08:19:01;;;;;;;21.47;10.57;;;;;;;30.75;52.73;100564.36;125402;1099;104326;-78
2021/07/14 08:21:34;;;;;;;20.97;10.67;;;;;;;30.86;52.56;100571.98;125199;1099;104785;-77
2021/07/14 08:24:07;;;;;;;19.17;9.77;;;;;;;30.98;53.01;100561.45;125261;1099;104174;-78
2021/07/14 08:26:41;;;;;;;15.47;8.87;;;;;;;30.92;50.72;100563.55;125144;1099;104152;-78
2021/07/14 08:29:17;;;;;;;19.00;9.40;;;;;;;31.02;51.07;100564.02;125145;1099;104188;-80
2021/07/14 08:31:54;;;;;;;19.23;9.33;;;;;;;31.06;50.45;100562.92;125384;1099;104190;-77
2021/07/14 08:34:29;;;;;;;16.80;9.03;;;;;;;31.17;50.19;100568.69;126187;1099;104156;-79
2021/07/14 08:37:02;;;;;;;18.50;9.57;;;;;;;31.37;49.84;100559.56;126015;1097;104373;-79
2021/07/14 08:39:34;;;;;;;17.43;9.17;;;;;;;31.54;49.21;100556.91;125333;1099;104587;-78
2021/07/14 08:42:09;;;;;;;18.15;8.70;;;;;;;31.70;48.42;100551.56;125705;1099;104155;-78
2021/07/14 08:44:42;;;;;;;16.37;8.37;;;;;;;31.84;48.55;100553.55;125229;1102;104392;-78
2021/07/14 08:47:15;;;;;;;11.93;6.90;;;;;;;31.96;48.45;100548.43;126222;1099;104157;-77
2021/07/14 08:49:51;;;;;;;11.30;7.30;;;;;;;31.96;47.90;100553.86;126169;1099;104717;-78
2021/07/14 08:52:28;;;;;;;13.93;7.60;;;;;;;32.01;47.30;100559.94;126180;1099;104260;-80
2021/07/14 08:55:04;;;;;;;11.67;7.23;;;;;;;32.08;46.91;100556.82;126016;1099;104159;-80
2021/07/14 08:57:38;;;;;;;11.90;6.95;;;;;;;32.19;46.51;100558.09;126075;1099;104207;-80
2021/07/14 09:00:17;;;;;;;17.23;7.73;;;;;;;32.24;46.25;100550.57;126093;1099;105305;-77
2021/07/14 09:02:52;;;;;;;15.10;7.93;;;;;;;32.19;46.28;100558.96;126153;1099;104133;-80
2021/07/14 09:05:27;;;;;;;11.73;7.47;;;;;;;32.22;46.14;100547.94;126117;1099;104217;-78
2021/07/14 09:08:01;;;;;;;13.30;7.70;;;;;;;32.32;45.79;100547.44;126231;1099;104192;-78
2021/07/14 09:10:33;;;;;;;14.77;7.90;;;;;;;32.37;45.59;100548.09;126306;1099;104190;-78
2021/07/14 09:13:05;;;;;;;13.40;7.47;;;;;;;32.33;44.92;100549.20;126217;1099;104137;-79
2021/07/14 09:15:45;;;;;;;16.17;7.42;;;;;;;32.32;45.05;100540.20;126321;1099;104137;-78
2021/07/14 09:18:24;;;;;;;14.43;7.73;;;;;;;32.37;45.01;100546.24;126205;1099;104143;-77
2021/07/14 09:20:57;;;;;;;13.30;7.17;;;;;;;32.46;44.96;100546.69;126254;1098;104284;-78
2021/07/14 09:23:31;;;;;;;;;;;;;;;32.29;43.76;100548.51;126161;1099;104172;-78
2021/07/14 09:26:07;;;;;;;16.33;7.53;;;;;;;32.35;44.49;100555.42;126227;1099;105188;-78
2021/07/14 09:28:42;;;;;;;18.03;7.83;;;;;;;32.45;44.05;100556.69;126194;1099;104204;-77
2021/07/14 09:31:17;;;;;;;14.17;7.40;;;;;;;32.56;44.03;100556.09;126191;1099;104185;-78
2021/07/14 09:33:49;;;;;;;13.53;7.63;;;;;;;32.62;43.96;100553.03;125986;1099;104185;-79
2021/07/14 09:36:32;;;;;;;14.77;7.77;;;;;;;32.68;44.08;100544.58;126285;1099;104246;-80
2021/07/14 09:39:07;;;;;;;16.23;7.60;;;;;;;32.63;43.51;100548.47;125425;1099;104217;-77
2021/07/14 09:41:39;;;;;;;13.37;7.50;;;;;;;32.61;43.10;100556.70;126292;1099;104156;-76
2021/07/14 09:44:24;;;;;;;13.73;7.03;;;;;;;32.54;43.28;100555.31;126224;1099;104197;-77
2021/07/14 09:47:15;;;;;;;15.57;7.20;;;;;;;32.55;43.09;100555.22;126166;1099;104184;-77
2021/07/14 09:49:54;;;;;;;13.83;6.23;;;;;;;32.70;42.53;100553.51;126092;1099;104172;-76
2021/07/14 09:52:28;;;;;;;11.30;5.93;;;;;;;32.70;40.84;100558.08;126187;1099;104305;-78
2021/07/14 09:55:10;;;;;;;12.60;6.63;;;;;;;32.66;41.75;100553.77;126175;1099;104188;-78
2021/07/14 09:57:42;;;;;;;16.70;7.70;;;;;;;32.65;42.10;100544.75;126160;1099;104169;-78
2021/07/14 10:00:26;;;;;;;12.33;6.83;;;;;;;32.76;41.65;100545.02;126243;1099;104293;-77
2021/07/14 10:02:59;;;;;;;12.70;6.40;;;;;;;32.85;41.33;100550.88;125989;1099;104310;-78
2021/07/14 10:05:33;;;;;;;15.03;7.23;;;;;;;32.90;41.54;100543.37;126038;1099;110830;-79
2021/07/14 10:08:19;;;;;;;12.47;6.93;;;;;;;32.96;41.05;100543.88;125995;1098;104155;-79
2021/07/14 10:11:07;;;;;;;13.27;7.07;;;;;;;33.11;41.18;100535.80;125994;1099;104269;-80
2021/07/14 10:13:51;;;;;;;14.45;7.25;;;;;;;33.20;41.35;100542.59;126059;1099;104291;-78
2021/07/14 10:16:29;;;;;;;14.03;7.20;;;;;;;33.11;40.87;100541.23;126316;1098;104245;-77
2021/07/14 10:19:10;;;;;;;11.77;6.87;;;;;;;33.06;41.08;100543.35;126186;1098;104258;-79
2021/07/14 10:21:45;;;;;;;16.33;7.23;;;;;;;33.05;40.97;100542.48;126062;1099;104188;-79
2021/07/14 10:24:19;;;;;;;14.03;7.80;;;;;;;33.14;41.36;100538.34;125979;1099;104246;-79
2021/07/14 10:26:53;;;;;;;13.80;7.43;;;;;;;33.20;40.84;100538.02;126058;1099;104143;-79
2021/07/14 10:29:27;;;;;;;17.33;7.60;;;;;;;33.29;40.59;100531.17;126305;1099;104169;-79
2021/07/14 10:32:01;;;;;;;13.90;7.63;;;;;;;33.34;40.60;100536.34;126178;1099;104192;-77
2021/07/14 10:34:33;;;;;;;;;;;;;;;33.39;40.77;100531.49;126030;1099;104233;-77
2021/07/14 10:37:10;;;;;;;11.77;7.20;;;;;;;33.47;40.25;100535.52;126135;1099;104264;-77
2021/07/14 10:39:43;;;;;;;14.83;7.37;;;;;;;33.58;40.38;100529.44;126087;1099;104297;-78
2021/07/14 10:42:19;;;;;;;12.90;7.30;;;;;;;33.50;39.39;100529.00;126080;1099;104232;-79
2021/07/14 10:44:52;;;;;;;16.43;7.70;;;;;;;33.44;39.89;100530.27;126061;1099;104249;-78
2021/07/14 10:47:27;;;;;;;16.10;7.90;;;;;;;33.36;40.17;100526.23;126150;1098;104214;-79
2021/07/14 10:49:59;;;;;;;19.27;7.87;;;;;;;33.39;40.50;100528.77;126270;1099;104236;-79
2021/07/14 10:52:32;;;;;;;16.17;7.87;;;;;;;33.34;40.25;100536.34;126173;1099;104399;-78
2021/07/14 10:55:15;;;;;;;16.27;8.10;;;;;;;33.38;40.64;100529.73;126138;1098;104140;-77
2021/07/14 10:57:47;;;;;;;14.33;7.70;;;;;;;33.39;40.13;100523.33;126250;1099;104175;-78
2021/07/14 11:00:24;;;;;;;16.80;7.83;;;;;;;33.41;40.07;100534.98;126120;1098;104364;-77
2021/07/14 11:02:57;;;;;;;12.23;7.43;;;;;;;33.37;40.18;100531.59;126167;1099;104241;-78
2021/07/14 11:05:47;;;;;;;14.80;7.93;;;;;;;33.34;40.22;100523.61;126140;1099;104198;-77
2021/07/14 11:08:40;;;;;;;14.03;7.83;;;;;;;33.35;40.25;100522.66;126253;1099;104277;-75
2021/07/14 11:11:13;;;;;;;18.50;8.10;;;;;;;33.27;40.12;100531.27;125301;1099;104197;-77
2021/07/14 11:13:43;;;;;;;;;;;;;;;33.33;39.43;100521.84;125326;1099;104235;-77
2021/07/14 11:16:27;;;;;;;15.87;8.23;;;;;;;33.49;39.89;100519.11;125219;1099;104172;-77
2021/07/14 11:19:08;;;;;;;14.25;7.30;;;;;;;33.55;40.14;100518.74;125234;1099;104398;-79
2021/07/14 11:21:57;;;;;;;13.93;7.60;;;;;;;33.61;39.71;100512.03;125323;1099;104329;-78
2021/07/14 11:24:54;;;;;;;13.57;7.70;;;;;;;33.62;39.81;100514.66;125267;1100;104545;-79
2021/07/14 11:27:48;;;;;;;17.13;8.20;;;;;;;33.59;39.47;100513.98;125332;1099;104248;-78
2021/07/14 11:30:31;;;;;;;15.17;7.37;;;;;;;33.58;39.55;100512.22;125265;1099;104290;-79
2021/07/14 11:33:05;;;;;;;13.20;6.80;;;;;;;33.46;38.48;100513.86;125161;1099;104236;-79
2021/07/14 11:35:44;;;;;;;11.07;6.00;;;;;;;33.53;38.43;100508.91;125236;1099;104294;-77
2021/07/14 11:38:21;;;;;;;12.63;6.30;;;;;;;33.61;38.47;100512.94;125915;1099;104210;-78